Accueil
METAR-TAF:

METAR-TAF

Aéroports :

Meiringen, Suisse

latitude: 46-44-25N, longitude: 8-06-36E, altitude: 577 m

Observation

Le bulletin a été fait il y a 22 minutes, à 05:20 UTC
Vent 5 kt de ouest, variant entre sud-ouest et nord-ouest
Température -1°C
Humidité 100%
Pression 1010 hPa
Visibilité: 7000 m
Nuages fragmentés à une hauteur de 700 ft

METAR: LSMM 210520Z AUTO 26005KT 230V320 7000NDV BKN007 M01/M01 Q1010 RMK

Heure: 06:42 (05:42 UTC)


TAF: absent

Observations et prévisions météorologiques de plus de 4000 aéroports (messages METAR et TAF).

Les stations disponibles sont représentées par des disques jaunes et rouges sur la carte.

Passer la souris dessus pour voir le nom de la station.

Cliquer dessus pour voir les observations et prévisions météorologiques.

Pour changer de carte: cliquez sur les boutons verts avec une croix noire pour zoomer, sur le bouton vert avec un tiret pour effectuer un zoom arrière, ou sur les flèches vertes pour les cartes adjacentes.


METAR-TAF: